createdAt,value
2023-01-20T02:12:18.863Z,99891.40
2023-01-20T02:14:52.863Z,99890.40
2023-01-20T02:18:19.421Z,99896.20
2023-01-20T02:21:45.237Z,99913.40
2023-01-20T02:24:37.389Z,99915.80
2023-01-20T02:27:19.900Z,99911.60
2023-01-20T02:30:15.902Z,99902.40
2023-01-20T02:33:24.557Z,99910.40
2023-01-20T02:36:16.657Z,99914.80
2023-01-20T02:39:01.141Z,99916.20
2023-01-20T02:41:53.096Z,99911.20
2023-01-20T02:44:36.048Z,99915.00
2023-01-20T02:47:32.865Z,99914.80
2023-01-20T02:50:16.949Z,99909.60
2023-01-20T02:52:54.672Z,99905.40
2023-01-20T02:55:33.976Z,99904.20
2023-01-20T02:58:07.484Z,99907.40
2023-01-20T03:00:42.970Z,99903.00
2023-01-20T03:03:21.403Z,99895.00
2023-01-20T03:05:58.627Z,99898.40
2023-01-20T03:08:31.653Z,99897.20
2023-01-20T03:11:08.973Z,99905.20
2023-01-20T03:13:46.324Z,99915.40
2023-01-20T03:16:23.737Z,99917.80
2023-01-20T03:18:52.370Z,99923.20
2023-01-20T03:21:20.245Z,99929.20
2023-01-20T03:23:54.393Z,99922.20
2023-01-20T03:26:23.598Z,99922.00
2023-01-20T03:28:52.072Z,99922.80
2023-01-20T03:31:26.241Z,99922.00
2023-01-20T03:33:58.792Z,99926.60
2023-01-20T03:36:30.072Z,99921.80
2023-01-20T03:39:01.844Z,99930.20
2023-01-20T03:41:52.438Z,99936.00
2023-01-20T03:44:50.946Z,99945.40
2023-01-20T03:47:40.166Z,99943.00
2023-01-20T03:50:38.632Z,99952.60
2023-01-20T03:53:29.081Z,99964.20
2023-01-20T03:56:11.852Z,99964.20
2023-01-20T03:58:45.400Z,99967.60
2023-01-20T04:01:16.503Z,99971.40
2023-01-20T04:03:52.038Z,99973.40
2023-01-20T04:06:23.630Z,99976.80
2023-01-20T04:08:58.128Z,99975.00
2023-01-20T04:11:27.341Z,99987.80
2023-01-20T04:13:55.392Z,99989.20
2023-01-20T04:16:25.257Z,99993.20
2023-01-20T04:18:54.111Z,99994.60
2023-01-20T04:21:35.748Z,99998.60
2023-01-20T04:24:59.829Z,100000.20
2023-01-20T04:27:27.629Z,100005.40
2023-01-20T04:29:55.394Z,100010.60
2023-01-20T04:32:23.252Z,100012.40
2023-01-20T04:34:52.359Z,100016.40
2023-01-20T04:37:20.213Z,100022.20
2023-01-20T04:39:47.959Z,100025.20
2023-01-20T04:42:16.018Z,100030.80
2023-01-20T04:44:43.822Z,100037.40
2023-01-20T04:47:11.514Z,100039.80
2023-01-20T04:49:39.313Z,100041.60
2023-01-20T04:52:07.140Z,100050.40
2023-01-20T04:54:34.926Z,100056.80
2023-01-20T04:57:02.729Z,100061.80
2023-01-20T04:59:30.514Z,100062.00
2023-01-20T05:02:01.168Z,100064.40
2023-01-20T05:04:29.041Z,100063.00
2023-01-20T05:06:56.793Z,100062.20
2023-01-20T05:09:24.569Z,100069.00
2023-01-20T05:11:52.360Z,100071.20
2023-01-20T05:14:20.161Z,100068.80
2023-01-20T05:16:47.908Z,100076.40
2023-01-20T05:19:15.640Z,100079.40
2023-01-20T05:21:43.864Z,100076.00
2023-01-20T05:24:11.928Z,100079.00
2023-01-20T05:26:39.771Z,100088.40
2023-01-20T05:29:07.760Z,100089.40
2023-01-20T05:31:37.590Z,100089.40
2023-01-20T05:34:05.451Z,100099.40
2023-01-20T05:36:33.539Z,100093.40
2023-01-20T05:39:01.371Z,100094.40
2023-01-20T05:41:29.345Z,100101.20
2023-01-20T05:43:57.350Z,100107.00
2023-01-20T05:46:25.161Z,100111.20
2023-01-20T05:48:52.972Z,100123.60
2023-01-20T05:51:21.003Z,100130.40
2023-01-20T05:53:48.743Z,100132.20
2023-01-20T05:56:16.503Z,100137.00
2023-01-20T05:58:44.541Z,100138.20
2023-01-20T06:01:14.954Z,100147.00
2023-01-20T06:03:43.217Z,100157.20
2023-01-20T06:06:15.633Z,100169.40
2023-01-20T06:08:43.912Z,100184.20
2023-01-20T06:11:14.367Z,100187.40
2023-01-20T06:13:42.206Z,100189.80
2023-01-20T06:16:10.005Z,100196.60
2023-01-20T06:18:38.111Z,100196.20
2023-01-20T06:21:06.351Z,100202.80
2023-01-20T06:23:34.259Z,100212.60
2023-01-20T06:26:12.885Z,100219.40
2023-01-20T06:28:40.812Z,100231.80
2023-01-20T06:31:13.161Z,100230.00
2023-01-20T06:33:44.082Z,100232.80
2023-01-20T06:36:17.502Z,100232.20
2023-01-20T06:38:50.601Z,100246.80
2023-01-20T06:41:20.145Z,100243.60
2023-01-20T06:43:48.019Z,100246.80
2023-01-20T06:46:16.777Z,100244.40
2023-01-20T06:48:45.881Z,100245.00
2023-01-20T06:51:20.201Z,100250.00
2023-01-20T06:53:50.808Z,100250.60
2023-01-20T06:56:18.702Z,100249.20
2023-01-20T06:58:46.571Z,100258.80
2023-01-20T07:01:29.013Z,100258.40
2023-01-20T07:03:57.338Z,100260.20
2023-01-20T07:06:29.102Z,100256.20
2023-01-20T07:08:58.845Z,100260.20
2023-01-20T07:11:28.856Z,100260.40
2023-01-20T07:13:56.727Z,100265.80
2023-01-20T07:16:27.213Z,100267.60
2023-01-20T07:18:55.649Z,100273.00
2023-01-20T07:21:26.406Z,100276.60
2023-01-20T07:23:54.878Z,100277.80
2023-01-20T07:26:26.572Z,100287.60
2023-01-20T07:28:54.522Z,100289.20
2023-01-20T07:31:30.692Z,100284.00
2023-01-20T07:33:58.701Z,100285.40
2023-01-20T07:36:27.333Z,100289.20
2023-01-20T07:38:55.305Z,100289.60
2023-01-20T07:41:23.167Z,100295.20
2023-01-20T07:43:53.157Z,100290.40
2023-01-20T07:46:21.433Z,100294.40
2023-01-20T07:48:49.306Z,100291.60
2023-01-20T07:51:17.357Z,100290.20
2023-01-20T07:53:47.987Z,100292.20
2023-01-20T07:56:23.374Z,100291.40
2023-01-20T07:58:52.330Z,100285.80
2023-01-20T08:01:26.725Z,100289.60
2023-01-20T08:03:54.837Z,100291.20
2023-01-20T08:06:25.823Z,100296.60
2023-01-20T08:09:01.048Z,100292.80
2023-01-20T08:11:29.509Z,100294.80
2023-01-20T08:13:57.398Z,100292.60
2023-01-20T08:16:25.230Z,100291.80
2023-01-20T08:18:54.793Z,100291.80
2023-01-20T08:21:29.517Z,100294.00
2023-01-20T08:24:03.247Z,100297.80
2023-01-20T08:26:31.981Z,100299.00
2023-01-20T08:29:07.835Z,100303.00
2023-01-20T08:31:36.686Z,100301.80
2023-01-20T08:34:05.741Z,100302.40
2023-01-20T08:36:35.676Z,100301.00
2023-01-20T08:39:06.866Z,100297.80
2023-01-20T08:41:38.362Z,100297.60
2023-01-20T08:44:08.236Z,100298.20
2023-01-20T08:46:41.885Z,100300.40
2023-01-20T08:49:14.168Z,100305.80
2023-01-20T08:51:43.664Z,100307.00
2023-01-20T08:54:11.937Z,100310.20
2023-01-20T08:56:40.462Z,100312.60
2023-01-20T08:59:08.261Z,100310.20
2023-01-20T09:01:37.765Z,100316.80
2023-01-20T09:04:07.674Z,100315.00
2023-01-20T09:06:46.245Z,100318.00
2023-01-20T09:09:16.871Z,100314.40
2023-01-20T09:11:50.757Z,100303.80
2023-01-20T09:14:21.379Z,100306.00
2023-01-20T09:16:49.907Z,100308.60
2023-01-20T09:19:18.228Z,100314.00
2023-01-20T09:21:46.198Z,100322.00
2023-01-20T09:24:14.515Z,100331.40
2023-01-20T09:26:42.352Z,100331.20
2023-01-20T09:29:17.088Z,100331.20
2023-01-20T09:31:58.145Z,100338.80
2023-01-20T09:34:29.469Z,100345.20
2023-01-20T09:37:19.478Z,100348.60
2023-01-20T09:40:08.750Z,100354.40
2023-01-20T09:43:23.041Z,100354.20
2023-01-20T09:46:03.395Z,100357.00
2023-01-20T09:49:17.113Z,100363.40
2023-01-20T09:52:29.403Z,100357.40
2023-01-20T09:55:05.133Z,100365.20
2023-01-20T09:57:40.500Z,100366.00
2023-01-20T10:00:21.991Z,100364.20
2023-01-20T10:03:01.641Z,100367.20
2023-01-20T10:05:37.250Z,100365.60
2023-01-20T10:08:17.271Z,100369.00
2023-01-20T10:11:00.944Z,100366.40
2023-01-20T10:13:40.613Z,100364.40
2023-01-20T10:16:12.705Z,100360.60
2023-01-20T10:18:56.695Z,100363.40
2023-01-20T10:21:44.135Z,100362.00
2023-01-20T10:24:34.022Z,100360.60
2023-01-20T10:27:04.498Z,100363.80
2023-01-20T10:29:39.363Z,100365.00
2023-01-20T10:32:31.000Z,100370.00
2023-01-20T10:35:03.640Z,100369.00
2023-01-20T10:37:32.530Z,100373.80
2023-01-20T10:40:29.795Z,100383.20
2023-01-20T10:43:01.030Z,100383.60
2023-01-20T10:46:21.702Z,100382.60
2023-01-20T10:49:40.264Z,100391.00
2023-01-20T10:52:43.295Z,100397.80
2023-01-20T10:55:23.601Z,100399.00
2023-01-20T10:58:18.398Z,100404.20
2023-01-20T11:00:46.617Z,100401.40
2023-01-20T11:03:20.419Z,100400.00
2023-01-20T11:05:50.762Z,100397.00
2023-01-20T11:08:23.729Z,100396.80
2023-01-20T11:11:14.997Z,100394.60
2023-01-20T11:13:43.052Z,100387.00
2023-01-20T11:16:26.887Z,100382.60
2023-01-20T11:19:04.825Z,100383.80
2023-01-20T11:21:37.144Z,100383.40
2023-01-20T11:24:30.922Z,100387.40
2023-01-20T11:27:11.005Z,100389.20
2023-01-20T11:29:45.571Z,100399.00
2023-01-20T11:32:33.979Z,100404.40
2023-01-20T11:35:21.592Z,100407.80
2023-01-20T11:37:49.466Z,100408.80
2023-01-20T11:40:29.550Z,100411.80
2023-01-20T11:43:00.028Z,100417.60
2023-01-20T11:45:34.955Z,100419.80
2023-01-20T11:48:16.328Z,100425.40
2023-01-20T11:50:57.466Z,100430.20
2023-01-20T11:53:34.120Z,100432.20
2023-01-20T11:56:26.354Z,100429.40
2023-01-20T11:59:04.311Z,100423.00
2023-01-20T12:01:54.108Z,100421.00
2023-01-20T12:04:52.976Z,100421.40
2023-01-20T12:07:31.421Z,100428.00
2023-01-20T12:10:24.140Z,100430.00
2023-01-20T12:13:07.025Z,100432.40
2023-01-20T12:15:44.588Z,100434.60
2023-01-20T12:19:02.142Z,100433.60
2023-01-20T12:21:40.427Z,100443.40
2023-01-20T12:24:56.529Z,100448.00
2023-01-20T12:27:28.436Z,100446.60
2023-01-20T12:30:02.203Z,100451.00
2023-01-20T12:32:33.176Z,100459.60
2023-01-20T12:35:01.041Z,100459.40
2023-01-20T12:37:43.294Z,100463.20
2023-01-20T12:40:25.658Z,100458.00
2023-01-20T12:43:57.933Z,100462.20
2023-01-20T12:46:47.621Z,100463.80
2023-01-20T12:49:42.243Z,100467.40
2023-01-20T12:52:37.156Z,100460.60
2023-01-20T12:55:30.101Z,100459.80
2023-01-20T12:58:16.898Z,100467.40
2023-01-20T13:01:00.578Z,100468.40
2023-01-20T13:03:56.327Z,100471.60
2023-01-20T13:06:39.731Z,100462.80
2023-01-20T13:09:43.759Z,100460.00
2023-01-20T13:12:35.873Z,100460.20
2023-01-20T13:15:53.047Z,100463.00
2023-01-20T13:18:23.874Z,100460.00
2023-01-20T13:20:53.857Z,100455.60
2023-01-20T13:23:34.664Z,100462.80
2023-01-20T13:26:05.353Z,100464.20
2023-01-20T13:28:33.172Z,100470.40
2023-01-20T13:31:33.239Z,100466.60
2023-01-20T13:34:21.073Z,100461.40
2023-01-20T13:37:04.215Z,100456.80
2023-01-20T13:39:39.890Z,100459.00
2023-01-20T13:42:37.328Z,100454.20
2023-01-20T13:45:14.824Z,100448.80
2023-01-20T13:48:08.347Z,100453.60
2023-01-20T13:50:38.505Z,100454.40
2023-01-20T13:53:21.494Z,100451.60
2023-01-20T13:55:52.945Z,100445.00
2023-01-20T13:58:34.912Z,100443.20
2023-01-20T14:01:06.374Z,100446.00
2023-01-20T14:03:37.809Z,100447.60
2023-01-20T14:06:22.131Z,100455.80
2023-01-20T14:08:51.613Z,100463.80
2023-01-20T14:11:22.791Z,100469.40
2023-01-20T14:14:05.639Z,100469.80
2023-01-20T14:16:37.970Z,100472.80
2023-01-20T14:19:24.862Z,100476.20
2023-01-20T14:22:03.593Z,100483.40
2023-01-20T14:24:36.686Z,100491.60
2023-01-20T14:27:16.877Z,100499.40
2023-01-20T14:29:47.405Z,100504.20
2023-01-20T14:32:37.127Z,100511.00
2023-01-20T14:35:27.856Z,100510.20
2023-01-20T14:37:55.828Z,100509.20
2023-01-20T14:40:33.012Z,100505.00
2023-01-20T14:43:02.449Z,100506.00
2023-01-20T14:45:33.015Z,100497.60
2023-01-20T14:48:02.936Z,100502.60
2023-01-20T14:50:34.190Z,100508.80
2023-01-20T14:53:02.085Z,100517.20
2023-01-20T14:55:35.557Z,100528.80
2023-01-20T14:58:17.347Z,100532.00
2023-01-20T15:00:58.552Z,100534.80
2023-01-20T15:03:28.684Z,100548.20
2023-01-20T15:06:12.340Z,100554.00
2023-01-20T15:08:41.000Z,100553.60
2023-01-20T15:11:17.207Z,100555.80
2023-01-20T15:14:08.577Z,100558.60
2023-01-20T15:16:36.618Z,100562.20
2023-01-20T15:19:13.330Z,100564.20
2023-01-20T15:21:45.881Z,100554.40
2023-01-20T15:24:35.519Z,100550.40
2023-01-20T15:27:21.603Z,100551.20
2023-01-20T15:30:01.499Z,100547.80
2023-01-20T15:32:29.558Z,100555.00
2023-01-20T15:34:57.357Z,100555.40
2023-01-20T15:37:28.375Z,100558.00
2023-01-20T15:39:56.150Z,100557.40
2023-01-20T15:42:24.415Z,100561.80
2023-01-20T15:44:52.455Z,100561.40
2023-01-20T15:47:30.867Z,100562.00
2023-01-20T15:49:58.769Z,100566.00
2023-01-20T15:52:26.621Z,100569.80
2023-01-20T15:54:57.236Z,100571.60
2023-01-20T15:57:25.077Z,100568.80
2023-01-20T15:59:53.078Z,100572.20
2023-01-20T16:02:23.629Z,100566.40
2023-01-20T16:04:51.548Z,100564.20
2023-01-20T16:07:21.008Z,100566.60
2023-01-20T16:09:49.256Z,100567.80
2023-01-20T16:12:20.146Z,100560.00
2023-01-20T16:14:47.917Z,100566.00
2023-01-20T16:17:21.529Z,100565.20
2023-01-20T16:19:51.362Z,100570.20
2023-01-20T16:22:19.133Z,100583.40
2023-01-20T16:24:49.074Z,100582.40
2023-01-20T16:27:22.841Z,100586.20
2023-01-20T16:29:50.758Z,100589.00
2023-01-20T16:32:22.308Z,100592.00
2023-01-20T16:34:50.410Z,100595.40
2023-01-20T16:37:18.130Z,100599.80
2023-01-20T16:39:46.260Z,100602.20
2023-01-20T16:42:16.013Z,100606.40
2023-01-20T16:44:43.868Z,100611.00
2023-01-20T16:47:11.686Z,100614.60
2023-01-20T16:49:39.740Z,100616.40
2023-01-20T16:52:07.811Z,100614.00
2023-01-20T16:54:35.603Z,100625.80
2023-01-20T16:57:03.406Z,100621.20
2023-01-20T16:59:31.873Z,100633.00
2023-01-20T17:02:02.336Z,100633.20
2023-01-20T17:04:33.640Z,100633.00
2023-01-20T17:07:01.502Z,100626.60
2023-01-20T17:09:29.565Z,100627.00
2023-01-20T17:11:57.410Z,100634.00
2023-01-20T17:14:25.331Z,100632.60
2023-01-20T17:16:55.189Z,100636.00
2023-01-20T17:19:24.521Z,100641.00
2023-01-20T17:21:53.037Z,100641.80
2023-01-20T17:24:20.946Z,100638.80
2023-01-20T17:26:48.838Z,100637.00
2023-01-20T17:29:22.263Z,100637.00
2023-01-20T17:31:50.695Z,100636.80
2023-01-20T17:34:18.620Z,100641.60
2023-01-20T17:36:48.499Z,100650.00
2023-01-20T17:39:16.332Z,100651.00
2023-01-20T17:41:44.136Z,100651.20
2023-01-20T17:44:12.715Z,100646.60
2023-01-20T17:46:43.341Z,100654.00
2023-01-20T17:49:11.164Z,100650.60
2023-01-20T17:51:39.189Z,100653.00
2023-01-20T17:54:10.025Z,100652.60
2023-01-20T17:56:40.932Z,100649.40
2023-01-20T17:59:08.960Z,100649.60
2023-01-20T18:01:36.985Z,100649.40
2023-01-20T18:04:06.454Z,100653.80
2023-01-20T18:06:35.383Z,100653.20
2023-01-20T18:09:06.725Z,100657.40
2023-01-20T18:11:37.597Z,100660.60
2023-01-20T18:14:07.215Z,100657.80
2023-01-20T18:16:38.907Z,100659.80
2023-01-20T18:19:09.925Z,100657.80
2023-01-20T18:21:38.737Z,100656.20
2023-01-20T18:24:08.230Z,100652.60
2023-01-20T18:26:38.952Z,100658.40
2023-01-20T18:29:16.466Z,100660.80
2023-01-20T18:31:48.475Z,100664.20
2023-01-20T18:34:16.548Z,100658.80
2023-01-20T18:36:46.273Z,100657.20
2023-01-20T18:39:19.327Z,100659.80
2023-01-20T18:41:48.622Z,100663.80
2023-01-20T18:44:20.385Z,100668.40
2023-01-20T18:46:48.411Z,100671.20
2023-01-20T18:49:18.294Z,100663.80
2023-01-20T18:51:46.239Z,100660.60
2023-01-20T18:54:17.611Z,100667.20
2023-01-20T18:56:45.448Z,100667.20
2023-01-20T18:59:13.537Z,100672.40
2023-01-20T19:01:44.525Z,100671.00
2023-01-20T19:04:13.555Z,100670.20
2023-01-20T19:06:46.187Z,100671.60
2023-01-20T19:09:16.064Z,100672.20
2023-01-20T19:11:43.852Z,100667.60
2023-01-20T19:14:14.394Z,100670.20
2023-01-20T19:16:45.338Z,100672.40
2023-01-20T19:19:13.570Z,100674.60
2023-01-20T19:21:42.384Z,100678.40
2023-01-20T19:24:17.501Z,100675.20
2023-01-20T19:26:46.252Z,100681.20
2023-01-20T19:29:17.166Z,100677.60
2023-01-20T19:31:45.189Z,100680.40
2023-01-20T19:34:16.081Z,100673.60
2023-01-20T19:36:44.114Z,100683.40
2023-01-20T19:39:11.929Z,100679.60
2023-01-20T19:41:43.870Z,100680.40
2023-01-20T19:44:13.626Z,100678.40
2023-01-20T19:46:41.793Z,100672.60
2023-01-20T19:49:12.016Z,100674.60
2023-01-20T19:51:42.029Z,100678.40
2023-01-20T19:54:13.250Z,100674.60
2023-01-20T19:56:41.456Z,100672.80
2023-01-20T19:59:12.427Z,100671.40
2023-01-20T20:01:40.290Z,100668.20
2023-01-20T20:04:15.200Z,100665.20
2023-01-20T20:06:48.544Z,100660.80
2023-01-20T20:09:23.353Z,100657.00
2023-01-20T20:11:51.833Z,100660.40
2023-01-20T20:14:22.995Z,100658.80
2023-01-20T20:16:50.795Z,100656.00
2023-01-20T20:19:20.248Z,100660.40
2023-01-20T20:21:48.283Z,100662.40
2023-01-20T20:24:18.293Z,100661.00
2023-01-20T20:26:47.555Z,100654.80
2023-01-20T20:29:18.878Z,100661.00
2023-01-20T20:31:46.922Z,100660.40
2023-01-20T20:34:18.520Z,100654.40
2023-01-20T20:36:47.109Z,100650.00
2023-01-20T20:39:18.080Z,100638.20
2023-01-20T20:41:46.679Z,100649.00
2023-01-20T20:44:14.559Z,100643.20
2023-01-20T20:46:43.873Z,100635.80
2023-01-20T20:49:16.563Z,100629.20
2023-01-20T20:51:44.659Z,100627.00
2023-01-20T20:54:19.030Z,100636.00
2023-01-20T20:56:47.179Z,100636.80
2023-01-20T20:59:15.359Z,100625.00
2023-01-20T21:01:43.250Z,100631.80
2023-01-20T21:04:11.600Z,100640.60
2023-01-20T21:06:39.568Z,100645.20
2023-01-20T21:09:07.517Z,100644.00
2023-01-20T21:11:38.209Z,100648.00
2023-01-20T21:14:09.334Z,100651.20
2023-01-20T21:16:38.016Z,100653.40
2023-01-20T21:19:05.890Z,100652.20
2023-01-20T21:21:33.943Z,100653.20
2023-01-20T21:24:01.841Z,100650.80
2023-01-20T21:26:30.757Z,100644.60
2023-01-20T21:29:03.843Z,100638.40
2023-01-20T21:31:32.503Z,100633.40
2023-01-20T21:34:01.155Z,100630.80
2023-01-20T21:36:31.305Z,100636.00
2023-01-20T21:39:00.286Z,100635.40
2023-01-20T21:41:28.336Z,100636.40
2023-01-20T21:44:14.631Z,100633.80
2023-01-20T21:46:42.776Z,100627.80
2023-01-20T21:49:29.145Z,100628.40
2023-01-20T21:52:15.898Z,100621.20
2023-01-20T21:54:45.372Z,100621.00
2023-01-20T21:57:14.528Z,100614.60
2023-01-20T21:59:42.985Z,100624.60
2023-01-20T22:02:13.325Z,100618.60
2023-01-20T22:04:42.019Z,100623.60
2023-01-20T22:07:14.927Z,100625.20
2023-01-20T22:09:45.377Z,100626.40
2023-01-20T22:12:16.121Z,100623.00
2023-01-20T22:14:44.011Z,100620.20
2023-01-20T22:17:12.701Z,100614.00
2023-01-20T22:19:40.559Z,100609.60
2023-01-20T22:22:08.380Z,100610.40
2023-01-20T22:24:37.228Z,100606.80
2023-01-20T22:27:05.057Z,100604.40
2023-01-20T22:29:32.953Z,100606.20
2023-01-20T22:32:03.261Z,100599.80
2023-01-20T22:34:31.697Z,100601.20
2023-01-20T22:37:00.583Z,100591.00
2023-01-20T22:39:28.420Z,100589.40
2023-01-20T22:41:56.548Z,100590.20
2023-01-20T22:44:24.350Z,100582.80
2023-01-20T22:46:52.549Z,100579.20
2023-01-20T22:49:20.456Z,100568.40
2023-01-20T22:51:48.227Z,100564.20
2023-01-20T22:54:16.326Z,100561.60
2023-01-20T22:56:44.168Z,100561.60
2023-01-20T22:59:13.792Z,100562.60
2023-01-20T23:01:41.753Z,100558.00
2023-01-20T23:04:10.307Z,100555.80
2023-01-20T23:06:38.186Z,100556.00
2023-01-20T23:09:10.547Z,100555.80
2023-01-20T23:11:40.141Z,100560.20
2023-01-20T23:14:12.645Z,100561.60
2023-01-20T23:16:42.519Z,100550.40
2023-01-20T23:19:13.522Z,100552.20
2023-01-20T23:21:41.315Z,100554.80
2023-01-20T23:24:09.636Z,100559.40
2023-01-20T23:26:37.439Z,100552.00
2023-01-20T23:29:08.010Z,100556.60
2023-01-20T23:31:35.861Z,100550.60
2023-01-20T23:34:03.746Z,100552.80
2023-01-20T23:36:31.662Z,100540.80
2023-01-20T23:38:59.408Z,100531.80
2023-01-20T23:41:27.179Z,100534.80
2023-01-20T23:43:54.953Z,100537.20
2023-01-20T23:46:22.704Z,100539.00
2023-01-20T23:48:50.461Z,100536.40
2023-01-20T23:51:18.406Z,100532.80
2023-01-20T23:53:46.438Z,100532.00
2023-01-20T23:56:21.143Z,100541.00
2023-01-20T23:58:49.317Z,100544.20
